Portada
METAR-TAF:

METAR-TAF

Aeroports :

Karachi, Pakistan

latitud: 24-54N, longitud: 067-08E, altitud: 21 m

Observació

L'informe es va fer fa 7 minuts, a les 04:30 UTC
Vent 10 kt del Oest
Temperatura 32°C
Humitat 59%
Pressió 1008 hPa
Visibilitat: 7000 m
Escasses núvols a una alçada de 2000 ft

METAR: OPKC 220430Z 27010KT 7000 FEW020 32/23 Q1008 NOSIG

Hora: 09:37 (04:37 UTC)

Pronòstic

L'informe es va fer fa 4 hores i 7 minuts, a les 00:30 UTC
Pronòstic vàlid del 22 a les 03 UTC al 22 a les 12 UTC
Vent 12 kt del Oest amb ràfegues de 22 kt
Visibilitat: 6000 m
Núvols disperses a una alçada de 2000 ft

TAF: OPKC 220030Z 2203/2212 27012G22KT 6000 SCT020

Observacions i pronòstics meteorològics de més de 4000 aeroports (METAR i TAF).

Les estacions disponibles són els punts grocs i vermells al mapa.

Posi el ratolí al punt desitjat per veure el nom de l'estació.

Feu clic per veure les observacions i els pronòstics meteorològics.

Per canviar el mapa: feu clic els botons verds amb una creu de color negre per apropar; al botó verd amb un guió per allunyar la imatge; o en les fletxes verdes per a mapes adjacents.


METAR-TAF: